createdAt,value
2023-04-19T00:00:49.619Z,95984.06
2023-04-19T00:03:17.454Z,95987.69
2023-04-19T00:05:46.782Z,95970.09
2023-04-19T00:08:14.603Z,95977.13
2023-04-19T00:10:42.240Z,95977.13
2023-04-19T00:13:09.979Z,95982.41
2023-04-19T00:15:38.905Z,95984.06
2023-04-19T00:18:07.366Z,95973.22
2023-04-19T00:20:35.034Z,95976.31
2023-04-19T00:23:04.102Z,95971.88
2023-04-19T00:25:31.965Z,95973.50
2023-04-19T00:27:59.721Z,95975.16
2023-04-19T00:30:27.935Z,95969.38
2023-04-19T00:32:56.033Z,95969.19
2023-04-19T00:35:25.739Z,95971.19
2023-04-19T00:37:53.568Z,95967.56
2023-04-19T00:40:22.528Z,95966.38
2023-04-19T00:42:50.247Z,95966.25
2023-04-19T00:45:17.870Z,95957.69
2023-04-19T00:47:45.676Z,95957.88
2023-04-19T00:50:14.453Z,95957.56
2023-04-19T00:52:43.102Z,95958.09
2023-04-19T00:55:11.362Z,95949.09
2023-04-19T00:57:40.604Z,95954.16
2023-04-19T01:00:10.066Z,95950.53
2023-04-19T01:02:37.913Z,95951.53
2023-04-19T01:05:06.231Z,95950.16
2023-04-19T01:07:34.927Z,95951.00
2023-04-19T01:10:02.646Z,95946.53
2023-04-19T01:12:30.408Z,95948.19
2023-04-19T01:14:59.338Z,95944.25
2023-04-19T01:17:28.107Z,95940.38
2023-04-19T01:20:00.579Z,95945.94
2023-04-19T01:22:30.644Z,95942.03
2023-04-19T01:24:58.546Z,95932.00
2023-04-19T01:27:26.301Z,95930.66
2023-04-19T01:29:53.875Z,95938.44
2023-04-19T01:32:21.665Z,95932.16
2023-04-19T01:34:50.546Z,95930.19
2023-04-19T01:37:18.133Z,95930.72
2023-04-19T01:39:47.483Z,95924.63
2023-04-19T01:42:15.074Z,95925.94
2023-04-19T01:44:42.865Z,95923.34
2023-04-19T01:47:10.884Z,95920.03
2023-04-19T01:49:41.024Z,95911.66
2023-04-19T01:52:09.607Z,95916.13
2023-04-19T01:54:37.438Z,95914.78
2023-04-19T01:57:06.381Z,95917.22
2023-04-19T01:59:34.024Z,95918.53
2023-04-19T02:02:01.698Z,95918.41
2023-04-19T02:04:29.593Z,95908.88
2023-04-19T02:06:57.214Z,95908.50
2023-04-19T02:09:24.960Z,95908.19
2023-04-19T02:11:52.609Z,95900.59
2023-04-19T02:14:23.764Z,95898.63
2023-04-19T02:16:51.367Z,95900.94
2023-04-19T02:19:19.256Z,95897.47
2023-04-19T02:21:46.924Z,95902.91
2023-04-19T02:24:15.600Z,95899.78
2023-04-19T02:26:43.450Z,95892.22
2023-04-19T02:29:11.312Z,95891.41
2023-04-19T02:31:40.861Z,95891.41
2023-04-19T02:34:10.424Z,95884.13
2023-04-19T02:36:38.030Z,95877.22
2023-04-19T02:39:06.892Z,95879.53
2023-04-19T02:41:34.675Z,95876.06
2023-04-19T02:44:02.860Z,95880.50
2023-04-19T02:46:30.554Z,95881.97
2023-04-19T02:49:01.648Z,95883.47
2023-04-19T02:51:29.461Z,95883.28
2023-04-19T02:53:57.373Z,95882.13
2023-04-19T02:56:25.621Z,95875.38
2023-04-19T02:58:54.717Z,95872.94
2023-04-19T03:01:22.334Z,95871.09
2023-04-19T03:03:51.165Z,95875.22
2023-04-19T03:06:20.435Z,95874.56
2023-04-19T03:08:48.249Z,95870.94
2023-04-19T03:11:18.566Z,95868.94
2023-04-19T03:13:47.792Z,95866.94
2023-04-19T03:16:16.254Z,95867.31
2023-04-19T03:18:45.815Z,95870.44
2023-04-19T03:21:15.120Z,95859.56
2023-04-19T03:23:52.475Z,95858.44
2023-04-19T03:26:20.402Z,95855.94
2023-04-19T03:28:51.949Z,95852.50
2023-04-19T03:31:27.021Z,95856.78
2023-04-19T03:33:55.215Z,95843.41
2023-04-19T03:36:28.749Z,95853.59
2023-04-19T03:38:57.870Z,95848.19
2023-04-19T03:41:27.171Z,95848.66
2023-04-19T03:44:03.847Z,95845.88
2023-04-19T03:46:31.654Z,95839.81
2023-04-19T03:49:00.487Z,95839.81
2023-04-19T03:51:29.336Z,95843.81
2023-04-19T03:53:58.838Z,95844.91
2023-04-19T03:56:26.525Z,95841.31
2023-04-19T03:58:55.738Z,95837.16
2023-04-19T04:01:25.578Z,95836.97
2023-04-19T04:03:54.585Z,95836.16
2023-04-19T04:06:23.580Z,95831.72
2023-04-19T04:08:51.279Z,95831.72
2023-04-19T04:11:20.577Z,95836.97
2023-04-19T04:13:50.419Z,95828.44
2023-04-19T04:16:22.427Z,95837.50
2023-04-19T04:18:52.066Z,95840.78
2023-04-19T04:21:19.969Z,95845.88
2023-04-19T04:23:49.719Z,95833.69
2023-04-19T04:26:30.772Z,95844.25
2023-04-19T04:29:10.987Z,95847.88
2023-04-19T04:31:40.859Z,95846.53
2023-04-19T04:34:09.148Z,95835.34
2023-04-19T04:36:42.500Z,95843.41
2023-04-19T04:39:12.483Z,95844.03
2023-04-19T04:41:42.067Z,95848.69
2023-04-19T04:44:12.922Z,95845.88
2023-04-19T04:46:41.900Z,95847.50
2023-04-19T04:49:12.308Z,95842.91
2023-04-19T04:51:42.781Z,95835.34
2023-04-19T04:54:11.070Z,95842.59
2023-04-19T04:56:39.201Z,95840.59
2023-04-19T04:59:08.642Z,95847.00
2023-04-19T05:01:40.434Z,95852.91
2023-04-19T05:04:08.201Z,95844.72
2023-04-19T05:06:36.304Z,95844.88
2023-04-19T05:09:04.679Z,95842.56
2023-04-19T05:11:35.132Z,95839.28
2023-04-19T05:14:03.652Z,95843.88
2023-04-19T05:16:34.959Z,95844.59
2023-04-19T05:19:03.943Z,95842.25
2023-04-19T05:21:35.960Z,95839.72
2023-04-19T05:24:06.635Z,95845.75
2023-04-19T05:26:35.985Z,95846.91
2023-04-19T05:29:05.716Z,95844.59
2023-04-19T05:32:01.115Z,95847.88
2023-04-19T05:34:31.812Z,95842.25
2023-04-19T05:37:00.827Z,95839.09
2023-04-19T05:39:28.858Z,95835.94
2023-04-19T05:41:56.460Z,95840.56
2023-04-19T05:44:24.383Z,95833.25
2023-04-19T05:46:52.573Z,95839.56
2023-04-19T05:49:36.272Z,95833.63
2023-04-19T05:52:17.690Z,95838.22
2023-04-19T05:54:49.569Z,95838.84
2023-04-19T05:57:17.225Z,95842.59
2023-04-19T05:59:44.984Z,95839.44
2023-04-19T06:02:14.982Z,95840.06
2023-04-19T06:04:45.067Z,95842.72
2023-04-19T06:07:22.244Z,95844.66
2023-04-19T06:09:58.361Z,95843.47
2023-04-19T06:12:26.072Z,95839.94
2023-04-19T06:14:54.249Z,95848.34
2023-04-19T06:17:25.326Z,95847.97
2023-04-19T06:19:55.335Z,95841.72
2023-04-19T06:22:23.005Z,95844.66
2023-04-19T06:24:50.751Z,95846.94
2023-04-19T06:27:18.709Z,95847.88
2023-04-19T06:29:46.302Z,95842.25
2023-04-19T06:32:13.895Z,95846.53
2023-04-19T06:34:41.495Z,95845.38
2023-04-19T06:37:10.834Z,95842.88
2023-04-19T06:39:38.401Z,95842.19
2023-04-19T06:42:06.316Z,95842.31
2023-04-19T06:44:34.521Z,95839.16
2023-04-19T06:47:02.128Z,95839.16
2023-04-19T06:49:29.755Z,95851.34
2023-04-19T06:51:57.371Z,95845.91
2023-04-19T06:54:26.299Z,95843.28
2023-04-19T06:56:54.418Z,95849.47
2023-04-19T06:59:22.302Z,95835.31
2023-04-19T07:01:50.196Z,95832.94
2023-04-19T07:04:18.590Z,95840.34
2023-04-19T07:06:50.045Z,95831.25
2023-04-19T07:09:17.769Z,95833.06
2023-04-19T07:11:47.942Z,95833.31
2023-04-19T07:14:16.528Z,95841.84
2023-04-19T07:16:44.371Z,95833.00
2023-04-19T07:19:12.017Z,95838.28
2023-04-19T07:21:39.821Z,95832.91
2023-04-19T07:24:07.648Z,95836.56
2023-04-19T07:26:35.867Z,95839.53
2023-04-19T07:29:04.796Z,95835.56
2023-04-19T07:31:32.554Z,95832.06
2023-04-19T07:34:00.168Z,95831.97
2023-04-19T07:36:27.988Z,95841.09
2023-04-19T07:38:55.656Z,95832.91
2023-04-19T07:41:23.722Z,95834.25
2023-04-19T07:43:51.430Z,95832.91
2023-04-19T07:46:20.607Z,95825.06
2023-04-19T07:48:48.254Z,95832.47
2023-04-19T07:51:17.461Z,95833.09
2023-04-19T07:53:45.221Z,95828.19
2023-04-19T07:56:13.356Z,95824.53
2023-04-19T07:58:41.385Z,95826.56
2023-04-19T08:01:09.241Z,95825.47
2023-04-19T08:03:38.759Z,95826.38
2023-04-19T08:06:08.420Z,95816.53
2023-04-19T08:08:36.100Z,95824.19
2023-04-19T08:11:04.263Z,95814.19
2023-04-19T08:13:31.927Z,95815.72
2023-04-19T08:18:30.215Z,95807.56
2023-04-19T08:20:59.194Z,95812.84
2023-04-19T08:23:32.013Z,95813.84
2023-04-19T08:26:06.003Z,95811.59
2023-04-19T08:28:33.715Z,95800.44
2023-04-19T08:31:01.368Z,95794.16
2023-04-19T08:33:29.673Z,95805.72
2023-04-19T08:35:58.620Z,95804.66
2023-04-19T08:38:26.414Z,95804.34
2023-04-19T08:40:56.023Z,95797.09
2023-04-19T08:43:28.693Z,95799.97
2023-04-19T08:45:57.745Z,95806.78
2023-04-19T08:48:25.637Z,95802.22
2023-04-19T08:51:04.998Z,95796.38
2023-04-19T08:53:36.544Z,95785.03
2023-04-19T08:56:15.258Z,95794.22
2023-04-19T09:01:31.039Z,95789.69
2023-04-19T09:04:17.006Z,95791.59
2023-04-19T09:06:49.192Z,95782.66
2023-04-19T09:09:34.859Z,95778.66
2023-04-19T09:12:17.670Z,95777.06
2023-04-19T09:15:00.581Z,95773.63
2023-04-19T09:17:29.392Z,95774.91
2023-04-19T09:19:57.045Z,95773.91
2023-04-19T09:22:25.497Z,95766.59
2023-04-19T09:25:30.047Z,95755.56
2023-04-19T09:27:42.213Z,95756.41
2023-04-19T09:30:17.566Z,95753.53
2023-04-19T09:32:52.136Z,95756.56
2023-04-19T09:35:19.892Z,95750.28
2023-04-19T09:38:05.584Z,95750.69
2023-04-19T09:40:35.640Z,95741.91
2023-04-19T09:45:42.988Z,95737.78
2023-04-19T09:48:11.737Z,95735.56
2023-04-19T09:51:00.180Z,95725.69
2023-04-19T09:53:33.979Z,95726.25
2023-04-19T09:56:05.236Z,95724.38
2023-04-19T09:58:46.819Z,95728.06
2023-04-19T10:01:19.804Z,95724.91
2023-04-19T10:03:51.291Z,95719.06
2023-04-19T10:08:54.562Z,95710.63
2023-04-19T10:11:25.127Z,95711.69
2023-04-19T10:13:58.298Z,95712.94
2023-04-19T10:16:26.424Z,95707.66
2023-04-19T10:18:55.561Z,95705.19
2023-04-19T10:21:23.740Z,95708.44
2023-04-19T10:23:52.059Z,95700.69
2023-04-19T10:26:19.701Z,95695.44
2023-04-19T10:28:49.217Z,95698.38
2023-04-19T10:31:21.213Z,95700.06
2023-04-19T10:33:49.485Z,95695.53
2023-04-19T10:36:17.775Z,95685.91
2023-04-19T10:38:48.089Z,95691.25
2023-04-19T10:41:17.823Z,95684.66
2023-04-19T10:43:49.107Z,95684.66
2023-04-19T10:46:37.341Z,95675.94
2023-04-19T10:49:07.944Z,95673.09
2023-04-19T10:51:37.241Z,95664.53
2023-04-19T10:54:05.561Z,95670.16
2023-04-19T10:56:58.933Z,95664.31
2023-04-19T10:59:28.200Z,95660.94
2023-04-19T11:01:58.036Z,95657.53
2023-04-19T11:05:00.672Z,95658.97
2023-04-19T11:07:28.544Z,95652.63
2023-04-19T11:09:56.169Z,95650.16
2023-04-19T11:12:23.771Z,95644.81
2023-04-19T11:14:57.249Z,95641.03
2023-04-19T11:17:28.095Z,95648.53
2023-04-19T11:19:57.258Z,95635.81
2023-04-19T11:22:35.241Z,95631.88
2023-04-19T11:25:10.302Z,95639.88
2023-04-19T11:27:39.006Z,95637.75
2023-04-19T11:30:09.723Z,95625.84
2023-04-19T11:32:38.330Z,95612.84
2023-04-19T11:35:10.078Z,95625.69
2023-04-19T11:37:38.802Z,95623.22
2023-04-19T11:40:08.311Z,95620.03
2023-04-19T11:42:36.829Z,95613.09
2023-04-19T11:45:06.184Z,95620.44
2023-04-19T11:47:49.000Z,95615.97
2023-04-19T11:50:36.466Z,95613.06
2023-04-19T11:53:15.693Z,95610.38
2023-04-19T11:55:47.392Z,95610.97
2023-04-19T11:58:25.229Z,95602.00
2023-04-19T12:00:52.964Z,95606.78
2023-04-19T12:03:26.387Z,95609.78
2023-04-19T12:05:59.625Z,95610.03
2023-04-19T12:08:35.156Z,95613.09
2023-04-19T12:11:04.115Z,95602.91
2023-04-19T12:13:32.731Z,95608.00
2023-04-19T12:16:01.642Z,95613.50
2023-04-19T12:18:44.472Z,95609.44
2023-04-19T12:21:12.728Z,95617.78
2023-04-19T12:23:40.470Z,95610.25
2023-04-19T12:26:08.238Z,95610.22
2023-04-19T12:28:35.887Z,95606.88
2023-04-19T12:31:04.087Z,95602.94
2023-04-19T12:33:33.338Z,95604.13
2023-04-19T12:36:01.441Z,95605.72
2023-04-19T12:38:29.226Z,95605.53
2023-04-19T12:40:56.858Z,95596.78
2023-04-19T12:43:24.463Z,95594.59
2023-04-19T12:45:52.121Z,95597.44
2023-04-19T12:48:19.726Z,95601.34
2023-04-19T12:50:48.981Z,95592.19
2023-04-19T12:53:16.699Z,95600.72
2023-04-19T12:55:47.313Z,95593.19
2023-04-19T12:58:14.949Z,95599.66
2023-04-19T13:00:42.816Z,95596.00
2023-04-19T13:03:10.756Z,95594.13
2023-04-19T13:05:38.527Z,95594.75
2023-04-19T13:08:07.813Z,95592.31
2023-04-19T13:10:35.754Z,95589.41
2023-04-19T13:13:03.555Z,95592.44
2023-04-19T13:15:31.591Z,95593.38
2023-04-19T13:17:59.247Z,95596.00
2023-04-19T13:20:27.123Z,95599.66
2023-04-19T13:22:54.735Z,95599.66
2023-04-19T13:25:24.192Z,95591.09
2023-04-19T13:27:51.803Z,95597.63
2023-04-19T13:30:19.446Z,95593.97
2023-04-19T13:32:47.110Z,95588.50
2023-04-19T13:35:15.139Z,95595.41
2023-04-19T13:37:44.316Z,95588.56
2023-04-19T13:40:19.179Z,95585.72
2023-04-19T13:42:48.819Z,95582.75
2023-04-19T13:45:16.684Z,95581.31
2023-04-19T13:47:44.329Z,95590.97
2023-04-19T13:50:12.908Z,95586.16
2023-04-19T13:52:40.626Z,95586.56
2023-04-19T13:55:08.996Z,95582.47
2023-04-19T13:57:36.651Z,95585.13
2023-04-19T14:00:07.466Z,95573.84
2023-04-19T14:02:35.869Z,95574.22
2023-04-19T14:05:04.692Z,95576.22
2023-04-19T14:07:32.553Z,95580.69
2023-04-19T14:10:00.316Z,95573.59
2023-04-19T14:12:28.076Z,95570.19
2023-04-19T14:14:55.806Z,95574.25
2023-04-19T14:17:25.067Z,95572.25
2023-04-19T14:19:52.760Z,95570.44
2023-04-19T14:22:20.551Z,95573.06
2023-04-19T14:24:48.408Z,95574.69
2023-04-19T14:27:16.034Z,95572.59
2023-04-19T14:29:43.738Z,95570.97
2023-04-19T14:32:24.836Z,95572.81
2023-04-19T14:34:55.899Z,95573.41
2023-04-19T14:37:24.792Z,95572.38
2023-04-19T14:39:53.295Z,95568.72
2023-04-19T14:42:22.885Z,95567.13
2023-04-19T14:44:52.626Z,95571.22
2023-04-19T14:47:20.707Z,95569.59
2023-04-19T14:49:48.579Z,95572.00
2023-04-19T14:52:18.036Z,95573.53
2023-04-19T14:54:46.163Z,95567.78
2023-04-19T14:57:14.039Z,95572.94
2023-04-19T14:59:42.404Z,95570.06
2023-04-19T15:02:10.758Z,95577.09
2023-04-19T15:04:40.987Z,95577.59
2023-04-19T15:07:09.061Z,95580.91
2023-04-19T15:09:38.309Z,95582.31
2023-04-19T15:12:06.094Z,95592.59
2023-04-19T15:14:33.716Z,95586.63
2023-04-19T15:17:01.677Z,95584.91
2023-04-19T15:19:30.725Z,95583.94
2023-04-19T15:21:58.354Z,95589.34
2023-04-19T15:24:26.080Z,95585.78
2023-04-19T15:26:55.005Z,95585.97
2023-04-19T15:29:22.733Z,95582.69
2023-04-19T15:31:50.639Z,95592.31
2023-04-19T15:34:18.397Z,95582.16
2023-04-19T15:36:46.150Z,95595.03
2023-04-19T15:39:13.876Z,95591.28
2023-04-19T15:41:41.650Z,95592.66
2023-04-19T15:44:10.607Z,95599.09
2023-04-19T15:46:38.474Z,95598.81
2023-04-19T15:49:06.390Z,95594.44
2023-04-19T15:51:34.236Z,95602.41
2023-04-19T15:54:01.828Z,95599.56
2023-04-19T15:56:29.417Z,95608.59
2023-04-19T15:58:57.010Z,95606.03
2023-04-19T16:01:26.990Z,95602.41
2023-04-19T16:03:54.875Z,95603.31
2023-04-19T16:06:23.036Z,95603.31
2023-04-19T16:08:51.053Z,95602.84
2023-04-19T16:11:18.699Z,95603.47
2023-04-19T16:13:46.371Z,95604.91
2023-04-19T16:16:14.141Z,95598.75
2023-04-19T16:18:43.227Z,95606.88
2023-04-19T16:21:11.646Z,95605.84
2023-04-19T16:23:39.266Z,95611.72
2023-04-19T16:26:07.759Z,95614.88
2023-04-19T16:28:35.570Z,95620.63
2023-04-19T16:31:03.709Z,95625.22
2023-04-19T16:33:31.317Z,95620.25
2023-04-19T16:36:00.487Z,95615.66
2023-04-19T16:38:28.187Z,95622.94
2023-04-19T16:40:56.006Z,95611.63
2023-04-19T16:43:23.740Z,95619.88
2023-04-19T16:45:51.610Z,95612.34
2023-04-19T16:48:19.409Z,95612.47
2023-04-19T16:50:47.307Z,95605.28
2023-04-19T16:53:16.316Z,95617.28
2023-04-19T16:55:43.970Z,95603.63
2023-04-19T16:58:11.564Z,95609.84
2023-04-19T17:00:39.200Z,95604.59
2023-04-19T17:03:09.170Z,95606.59
2023-04-19T17:05:37.152Z,95605.78
2023-04-19T17:08:05.015Z,95600.03
2023-04-19T17:10:34.077Z,95601.31
2023-04-19T17:13:01.872Z,95595.06
2023-04-19T17:15:29.602Z,95590.50
2023-04-19T17:17:57.250Z,95589.00
2023-04-19T17:20:24.952Z,95590.81
2023-04-19T17:22:52.692Z,95593.44
2023-04-19T17:25:22.235Z,95585.91
2023-04-19T17:27:51.544Z,95579.97
2023-04-19T17:30:19.187Z,95569.16
2023-04-19T17:32:46.858Z,95566.69
2023-04-19T17:35:15.483Z,95571.94
2023-04-19T17:37:43.605Z,95564.28
2023-04-19T17:40:12.001Z,95570.88
2023-04-19T17:42:39.710Z,95581.22
2023-04-19T17:45:11.129Z,95581.53
2023-04-19T17:47:39.491Z,95589.25
2023-04-19T17:50:08.907Z,95588.31
2023-04-19T17:52:36.863Z,95590.13
2023-04-19T17:55:06.429Z,95584.19
2023-04-19T17:57:34.706Z,95595.50
2023-04-19T18:00:06.111Z,95589.63
2023-04-19T18:02:39.059Z,95602.75
2023-04-19T18:05:07.374Z,95601.94
2023-04-19T18:07:36.442Z,95601.47
2023-04-19T18:10:04.641Z,95598.50
2023-04-19T18:12:32.352Z,95587.72
2023-04-19T18:14:59.982Z,95594.28
2023-04-19T18:17:27.622Z,95590.34
2023-04-19T18:19:56.570Z,95596.06
2023-04-19T18:22:24.238Z,95605.75
2023-04-19T18:24:53.379Z,95603.47
2023-04-19T18:27:21.038Z,95606.75
2023-04-19T18:29:51.876Z,95606.91
2023-04-19T18:32:21.853Z,95607.06
2023-04-19T18:34:49.579Z,95612.19
2023-04-19T18:37:18.676Z,95610.41
2023-04-19T18:39:46.456Z,95602.19
2023-04-19T18:42:14.538Z,95609.09
2023-04-19T18:47:13.137Z,95615.84
2023-04-19T18:49:40.801Z,95607.78
2023-04-19T18:52:08.571Z,95614.69
2023-04-19T18:54:38.589Z,95618.94
2023-04-19T18:57:22.690Z,95624.06
2023-04-19T18:59:52.512Z,95631.25
2023-04-19T19:02:20.183Z,95621.75
2023-04-19T19:04:55.978Z,95613.72
2023-04-19T19:07:35.833Z,95621.25
2023-04-19T19:10:19.195Z,95629.13
2023-04-19T19:12:49.791Z,95620.59
2023-04-19T19:15:17.865Z,95621.25
2023-04-19T19:17:49.266Z,95625.53
2023-04-19T19:20:17.843Z,95623.53
2023-04-19T19:22:45.803Z,95632.09
2023-04-19T19:25:14.783Z,95631.25
2023-04-19T19:27:58.419Z,95633.41
2023-04-19T19:30:33.582Z,95638.66
2023-04-19T19:33:02.358Z,95631.41
2023-04-19T19:35:30.039Z,95632.25
2023-04-19T19:37:57.656Z,95633.72
2023-04-19T19:40:30.910Z,95637.66
2023-04-19T19:42:59.916Z,95638.34
2023-04-19T19:45:28.254Z,95636.03
2023-04-19T19:47:59.060Z,95630.59
2023-04-19T19:51:06.763Z,95633.09
2023-04-19T19:53:16.841Z,95626.16
2023-04-19T19:55:45.801Z,95624.88
2023-04-19T19:58:39.200Z,95621.44
2023-04-19T20:01:02.277Z,95633.41
2023-04-19T20:03:37.592Z,95638.66
2023-04-19T20:06:35.811Z,95632.41
2023-04-19T20:08:57.339Z,95628.16
2023-04-19T20:11:26.548Z,95642.59
2023-04-19T20:13:54.333Z,95632.91
2023-04-19T20:16:23.252Z,95642.59
2023-04-19T20:18:52.535Z,95637.00
2023-04-19T20:21:20.493Z,95641.28
2023-04-19T20:23:48.254Z,95641.63
2023-04-19T20:26:15.919Z,95641.63
2023-04-19T20:28:44.867Z,95634.38
2023-04-19T20:31:12.494Z,95637.66
2023-04-19T20:33:40.624Z,95636.03
2023-04-19T20:36:09.415Z,95639.63
2023-04-19T20:38:37.122Z,95635.69
2023-04-19T20:41:04.739Z,95629.78
2023-04-19T20:43:33.026Z,95619.09
2023-04-19T20:46:02.103Z,95612.88
2023-04-19T20:48:29.745Z,95599.91
2023-04-19T20:50:57.325Z,95600.09
2023-04-19T20:53:25.047Z,95596.63
2023-04-19T20:55:52.683Z,95594.50
2023-04-19T20:58:20.743Z,95597.97
2023-04-19T21:00:48.503Z,95585.16
2023-04-19T21:03:17.829Z,95595.66
2023-04-19T21:05:45.841Z,95588.94
2023-04-19T21:08:15.099Z,95594.03
2023-04-19T21:10:42.739Z,95585.00
2023-04-19T21:13:10.648Z,95576.00
2023-04-19T21:15:38.278Z,95573.53
2023-04-19T21:18:06.191Z,95567.78
2023-04-19T21:20:35.195Z,95565.84
2023-04-19T21:23:03.358Z,95564.50
2023-04-19T21:25:31.215Z,95554.69
2023-04-19T21:27:58.846Z,95558.28
2023-04-19T21:30:26.783Z,95559.44
2023-04-19T21:32:54.448Z,95563.22
2023-04-19T21:35:22.228Z,95569.59
2023-04-19T21:37:51.374Z,95571.56
2023-04-19T21:40:19.215Z,95566.66
2023-04-19T21:42:46.807Z,95568.13
2023-04-19T21:45:14.699Z,95573.53
2023-04-19T21:47:42.401Z,95569.91
2023-04-19T21:50:10.955Z,95563.53
2023-04-19T21:52:38.832Z,95564.50
2023-04-19T21:55:09.334Z,95567.13
2023-04-19T21:57:38.284Z,95569.44
2023-04-19T22:00:09.107Z,95570.09
2023-04-19T22:02:37.152Z,95576.13
2023-04-19T22:05:07.269Z,95562.38
2023-04-19T22:07:37.384Z,95565.97
2023-04-19T22:10:06.055Z,95563.19
2023-04-19T22:12:36.267Z,95549.91
2023-04-19T22:15:09.473Z,95548.09
2023-04-19T22:17:38.464Z,95546.16
2023-04-19T22:20:09.162Z,95545.47
2023-04-19T22:22:36.863Z,95555.16
2023-04-19T22:25:04.800Z,95550.72
2023-04-19T22:27:32.399Z,95545.00
2023-04-19T22:30:01.464Z,95535.97
2023-04-19T22:32:29.110Z,95521.88
2023-04-19T22:34:56.802Z,95512.06
2023-04-19T22:37:24.377Z,95510.41
2023-04-19T22:39:52.342Z,95518.28
2023-04-19T22:42:19.912Z,95525.47
2023-04-19T22:44:47.483Z,95531.03
2023-04-19T22:47:16.449Z,95519.09
2023-04-19T22:49:45.173Z,95506.31
2023-04-19T22:52:14.328Z,95504.84
2023-04-19T22:54:42.727Z,95505.66
2023-04-19T22:57:11.112Z,95506.31
2023-04-19T22:59:39.169Z,95513.06
2023-04-19T23:02:06.813Z,95508.44
2023-04-19T23:04:36.199Z,95510.75
2023-04-19T23:07:04.032Z,95508.13
2023-04-19T23:09:31.640Z,95491.41
2023-04-19T23:12:00.466Z,95488.59
2023-04-19T23:14:28.353Z,95486.97
2023-04-19T23:16:57.189Z,95478.94
2023-04-19T23:19:25.351Z,95468.47
2023-04-19T23:21:54.430Z,95464.69
2023-04-19T23:24:21.987Z,95470.25
2023-04-19T23:26:49.625Z,95477.47
2023-04-19T23:29:17.336Z,95471.09
2023-04-19T23:31:45.093Z,95471.09
2023-04-19T23:34:13.905Z,95475.34
2023-04-19T23:36:41.533Z,95467.47
2023-04-19T23:39:10.703Z,95462.22
2023-04-19T23:41:38.414Z,95457.31
2023-04-19T23:44:06.284Z,95454.03
2023-04-19T23:46:33.970Z,95447.97
2023-04-19T23:49:01.628Z,95436.31
2023-04-19T23:51:29.310Z,95438.31
2023-04-19T23:53:56.889Z,95438.00
2023-04-19T23:56:26.193Z,95436.34
2023-04-19T23:58:53.785Z,95446.50
